createdAt,value
2019-04-01T00:02:23.645Z,10.00
2019-04-01T00:04:52.053Z,9.80
2019-04-01T00:07:20.498Z,9.70
2019-04-01T00:09:48.913Z,9.70
2019-04-01T00:12:17.409Z,9.70
2019-04-01T00:14:45.833Z,9.60
2019-04-01T00:17:14.257Z,9.50
2019-04-01T00:19:42.704Z,9.50
2019-04-01T00:22:11.132Z,9.50
2019-04-01T00:24:39.542Z,9.60
2019-04-01T00:27:07.971Z,9.70
2019-04-01T00:29:36.433Z,9.60
2019-04-01T00:32:04.845Z,9.50
2019-04-01T00:34:33.289Z,9.60
2019-04-01T00:37:02.079Z,9.50
2019-04-01T00:39:30.501Z,9.50
2019-04-01T00:42:06.305Z,9.40
2019-04-01T00:44:34.709Z,9.40
2019-04-01T00:47:03.457Z,9.40
2019-04-01T00:49:31.871Z,9.30
2019-04-01T00:52:00.277Z,9.20
2019-04-01T00:54:28.699Z,9.10
2019-04-01T00:56:57.109Z,9.10
2019-04-01T00:59:25.543Z,9.00
2019-04-01T01:01:53.953Z,8.90
2019-04-01T01:04:22.373Z,8.90
2019-04-01T01:06:50.806Z,8.90
2019-04-01T01:09:19.277Z,8.80
2019-04-01T01:11:47.768Z,8.80
2019-04-01T01:14:16.182Z,8.80
2019-04-01T01:16:44.602Z,8.80
2019-04-01T01:19:13.025Z,8.80
2019-04-01T01:21:41.438Z,8.70
2019-04-01T01:24:09.882Z,8.70
2019-04-01T01:26:38.333Z,8.60
2019-04-01T01:29:06.771Z,8.60
2019-04-01T01:31:35.202Z,8.60
2019-04-01T01:34:03.641Z,8.60
2019-04-01T01:36:32.221Z,8.60
2019-04-01T01:39:00.665Z,8.50
2019-04-01T01:41:29.083Z,8.40
2019-04-01T01:43:57.525Z,8.40
2019-04-01T01:46:25.941Z,8.40
2019-04-01T01:48:54.667Z,8.40
2019-04-01T01:51:23.103Z,8.30
2019-04-01T01:53:51.533Z,8.30
2019-04-01T01:56:19.945Z,8.20
2019-04-01T01:58:48.374Z,8.10
2019-04-01T02:01:16.793Z,8.10
2019-04-01T02:03:45.234Z,8.10
2019-04-01T02:06:13.655Z,8.00
2019-04-01T02:08:42.057Z,8.10
2019-04-01T02:11:10.485Z,8.00
2019-04-01T02:13:38.896Z,8.00
2019-04-01T02:16:07.330Z,8.00
2019-04-01T02:18:35.755Z,8.10
2019-04-01T02:21:04.253Z,8.00
2019-04-01T02:23:32.723Z,7.90
2019-04-01T02:26:01.181Z,7.90
2019-04-01T02:28:29.620Z,7.80
2019-04-01T02:30:58.042Z,7.80
2019-04-01T02:33:26.460Z,7.80
2019-04-01T02:35:55.003Z,7.80
2019-04-01T02:38:23.523Z,7.80
2019-04-01T02:40:52.437Z,7.80
2019-04-01T02:43:20.838Z,7.70
2019-04-01T02:45:49.364Z,7.70
2019-04-01T02:48:17.867Z,7.70
2019-04-01T02:50:46.302Z,7.70
2019-04-01T02:53:14.709Z,7.60
2019-04-01T02:55:43.142Z,7.50
2019-04-01T02:58:11.534Z,7.60
2019-04-01T03:00:39.982Z,7.60
2019-04-01T03:03:08.400Z,7.60
2019-04-01T03:05:37.303Z,7.50
2019-04-01T03:08:05.717Z,7.40
2019-04-01T03:10:34.526Z,7.40
2019-04-01T03:13:02.937Z,7.40
2019-04-01T03:15:31.350Z,7.50
2019-04-01T03:17:59.807Z,7.40
2019-04-01T03:20:28.289Z,7.40
2019-04-01T03:22:56.717Z,7.50
2019-04-01T03:25:25.214Z,7.50
2019-04-01T03:27:53.617Z,7.40
2019-04-01T03:30:22.121Z,7.40
2019-04-01T03:32:50.618Z,7.30
2019-04-01T03:35:19.067Z,7.20
2019-04-01T03:37:47.499Z,7.20
2019-04-01T03:40:16.011Z,7.20
2019-04-01T03:42:44.421Z,7.10
2019-04-01T03:45:13.688Z,7.00
2019-04-01T03:47:42.115Z,7.00
2019-04-01T03:50:10.609Z,7.00
2019-04-01T03:52:39.025Z,7.00
2019-04-01T03:55:07.433Z,7.00
2019-04-01T03:57:35.887Z,7.00
2019-04-01T04:00:06.225Z,7.00
2019-04-01T04:02:34.633Z,7.00
2019-04-01T04:05:03.512Z,7.00
2019-04-01T04:07:31.956Z,7.00
2019-04-01T04:10:00.475Z,7.00
2019-04-01T04:12:29.061Z,6.90
2019-04-01T04:14:57.513Z,6.90
2019-04-01T04:17:25.934Z,6.90
2019-04-01T04:19:54.363Z,6.80
2019-04-01T04:22:22.858Z,6.80
2019-04-01T04:24:51.290Z,6.80
2019-04-01T04:27:19.715Z,6.80
2019-04-01T04:29:48.151Z,6.80
2019-04-01T04:32:16.917Z,6.80
2019-04-01T04:34:45.331Z,6.80
2019-04-01T04:37:13.882Z,6.90
2019-04-01T04:39:42.390Z,6.90
2019-04-01T04:42:10.836Z,6.80
2019-04-01T04:44:39.422Z,6.80
2019-04-01T04:47:07.920Z,6.90
2019-04-01T04:49:36.338Z,6.70
2019-04-01T04:52:05.467Z,6.70
2019-04-01T04:54:33.926Z,6.70
2019-04-01T04:57:02.381Z,6.70
2019-04-01T04:59:30.816Z,6.60
2019-04-01T05:01:59.473Z,6.70
2019-04-01T05:04:27.870Z,6.60
2019-04-01T05:06:56.295Z,6.70
2019-04-01T05:09:25.058Z,6.60
2019-04-01T05:11:53.506Z,6.60
2019-04-01T05:14:21.958Z,6.70
2019-04-01T05:16:50.386Z,6.60
2019-04-01T05:19:38.450Z,6.70
2019-04-01T05:22:07.767Z,6.70
2019-04-01T05:24:36.543Z,6.70
2019-04-01T05:27:04.958Z,6.70
2019-04-01T05:29:53.671Z,6.70
2019-04-01T05:32:22.636Z,6.70
2019-04-01T05:34:54.439Z,6.80
2019-04-01T05:37:22.854Z,6.70
2019-04-01T05:39:51.305Z,6.70
2019-04-01T05:42:20.108Z,6.70
2019-04-01T05:44:48.689Z,6.70
2019-04-01T05:47:18.372Z,6.80
2019-04-01T05:49:47.076Z,6.80
2019-04-01T05:52:15.517Z,6.80
2019-04-01T05:54:44.458Z,6.90
2019-04-01T05:57:14.133Z,6.90
2019-04-01T05:59:43.187Z,6.90
2019-04-01T06:02:11.737Z,7.00
2019-04-01T06:04:40.159Z,7.00
2019-04-01T06:07:08.566Z,7.10
2019-04-01T06:09:36.987Z,7.10
2019-04-01T06:12:05.397Z,7.20
2019-04-01T06:14:34.696Z,7.40
2019-04-01T06:17:03.269Z,7.50
2019-04-01T06:19:31.692Z,7.50
2019-04-01T06:22:00.125Z,7.50
2019-04-01T06:24:28.551Z,7.60
2019-04-01T06:26:57.407Z,7.60
2019-04-01T06:29:25.872Z,7.80
2019-04-01T06:31:54.276Z,7.80
2019-04-01T06:34:22.778Z,8.00
2019-04-01T06:36:51.559Z,8.10
2019-04-01T06:39:19.989Z,8.10
2019-04-01T06:41:48.681Z,8.40
2019-04-01T06:44:17.113Z,8.50
2019-04-01T06:46:45.560Z,8.70
2019-04-01T06:49:14.019Z,8.70
2019-04-01T06:51:42.489Z,8.90
2019-04-01T06:54:10.974Z,8.90
2019-04-01T06:56:39.965Z,9.30
2019-04-01T06:59:08.397Z,9.50
2019-04-01T07:01:36.813Z,9.50
2019-04-01T07:04:05.322Z,9.70
2019-04-01T07:06:33.721Z,9.80
2019-04-01T07:09:02.433Z,9.70
2019-04-01T07:11:30.915Z,9.80
2019-04-01T07:14:00.213Z,10.00
2019-04-01T07:16:28.720Z,10.00
2019-04-01T07:18:57.385Z,10.20
2019-04-01T07:21:25.891Z,10.00
2019-04-01T07:23:54.739Z,10.10
2019-04-01T07:26:23.158Z,10.40
2019-04-01T07:28:51.569Z,10.50
2019-04-01T07:31:19.989Z,10.40
2019-04-01T07:33:48.489Z,10.60
2019-04-01T07:36:16.977Z,10.80
2019-04-01T07:38:45.414Z,10.70
2019-04-01T07:41:13.837Z,11.00
2019-04-01T07:43:42.422Z,10.90
2019-04-01T07:46:10.846Z,11.20
2019-04-01T07:48:39.478Z,11.60
2019-04-01T07:51:08.726Z,11.70
2019-04-01T07:53:37.208Z,11.90
2019-04-01T07:56:07.509Z,11.90
2019-04-01T07:58:35.988Z,12.10
2019-04-01T08:01:04.473Z,11.90
2019-04-01T08:03:32.886Z,12.00
2019-04-01T08:06:01.391Z,12.10
2019-04-01T08:08:29.842Z,12.20
2019-04-01T08:10:58.389Z,12.30
2019-04-01T08:13:26.833Z,12.50
2019-04-01T08:15:55.249Z,12.70
2019-04-01T08:18:23.663Z,12.50
2019-04-01T08:20:52.147Z,12.50
2019-04-01T08:23:20.756Z,12.70
2019-04-01T08:25:49.181Z,13.00
2019-04-01T08:28:17.609Z,13.00
2019-04-01T08:30:46.117Z,12.90
2019-04-01T08:33:14.618Z,12.70
2019-04-01T08:35:43.099Z,12.60
2019-04-01T08:38:11.576Z,12.70
2019-04-01T08:40:40.366Z,12.80
2019-04-01T08:43:08.795Z,12.80
2019-04-01T08:45:37.295Z,12.70
2019-04-01T08:48:05.763Z,12.90
2019-04-01T08:50:34.241Z,13.20
2019-04-01T08:53:05.440Z,13.20
2019-04-01T08:55:33.845Z,13.40
2019-04-01T08:58:02.545Z,13.00
2019-04-01T09:00:31.118Z,13.00
2019-04-01T09:02:59.699Z,13.20
2019-04-01T09:05:28.570Z,13.50
2019-04-01T09:07:58.379Z,13.80
2019-04-01T09:10:26.780Z,14.00
2019-04-01T09:12:57.669Z,14.00
2019-04-01T09:15:26.101Z,14.00
2019-04-01T09:17:54.534Z,14.20
2019-04-01T09:20:22.938Z,14.50
2019-04-01T09:22:51.361Z,14.30
2019-04-01T09:25:19.895Z,14.00
2019-04-01T09:27:48.388Z,14.00
2019-04-01T09:30:18.794Z,14.10
2019-04-01T09:32:47.485Z,13.90
2019-04-01T09:35:16.109Z,14.00
2019-04-01T09:37:44.625Z,13.90
2019-04-01T09:40:14.695Z,13.90
2019-04-01T09:42:43.475Z,13.90
2019-04-01T09:45:12.655Z,13.80
2019-04-01T09:47:41.086Z,14.30
2019-04-01T09:50:09.590Z,14.40
2019-04-01T09:52:38.110Z,14.00
2019-04-01T09:55:06.994Z,14.20
2019-04-01T09:57:35.677Z,14.70
2019-04-01T10:00:06.654Z,15.00
2019-04-01T10:02:35.094Z,15.10
2019-04-01T10:05:04.675Z,15.00
2019-04-01T10:07:33.233Z,14.80
2019-04-01T10:10:01.778Z,14.90
2019-04-01T10:12:30.248Z,15.00
2019-04-01T10:14:58.701Z,14.70
2019-04-01T10:17:27.129Z,14.80
2019-04-01T10:19:55.565Z,14.50
2019-04-01T10:22:43.501Z,14.40
2019-04-01T10:25:12.186Z,14.30
2019-04-01T10:27:40.613Z,14.20
2019-04-01T10:30:10.183Z,14.10
2019-04-01T10:32:38.690Z,13.80
2019-04-01T10:35:08.335Z,13.80
2019-04-01T10:37:36.761Z,13.80
2019-04-01T10:40:07.807Z,13.70
2019-04-01T10:42:36.230Z,13.90
2019-04-01T10:45:07.184Z,14.20
2019-04-01T10:47:35.906Z,14.50
2019-04-01T10:50:06.109Z,14.80
2019-04-01T10:52:34.595Z,14.90
2019-04-01T10:55:03.258Z,14.90
2019-04-01T10:57:31.766Z,14.80
2019-04-01T11:00:00.435Z,14.70
2019-04-01T11:02:29.575Z,14.60
2019-04-01T11:04:58.157Z,14.60
2019-04-01T11:07:26.785Z,14.40
2019-04-01T11:09:55.197Z,14.70
2019-04-01T11:12:24.849Z,14.70
2019-04-01T11:14:53.529Z,14.60
2019-04-01T11:17:21.966Z,14.70
2019-04-01T11:19:50.410Z,14.40
2019-04-01T11:22:18.823Z,14.50
2019-04-01T11:24:47.308Z,14.60
2019-04-01T11:27:16.039Z,14.50
2019-04-01T11:29:44.472Z,14.60
2019-04-01T11:32:13.771Z,14.80
2019-04-01T11:34:42.444Z,14.70
2019-04-01T11:37:11.002Z,14.70
2019-04-01T11:39:39.522Z,14.70
2019-04-01T11:42:07.972Z,14.60
2019-04-01T11:44:36.495Z,14.70
2019-04-01T11:47:04.947Z,14.70
2019-04-01T11:49:33.421Z,14.60
2019-04-01T11:52:01.889Z,14.70
2019-04-01T11:54:30.535Z,14.50
2019-04-01T11:56:58.959Z,14.50
2019-04-01T11:59:27.478Z,14.50
2019-04-01T12:01:55.885Z,14.70
2019-04-01T12:04:25.270Z,14.80
2019-04-01T12:06:56.667Z,14.80
2019-04-01T12:09:25.128Z,14.70
2019-04-01T12:11:53.552Z,14.80
2019-04-01T12:14:21.972Z,14.80
2019-04-01T12:16:50.383Z,15.00
2019-04-01T12:19:18.819Z,15.10
2019-04-01T12:21:47.314Z,15.10
2019-04-01T12:24:15.758Z,15.20
2019-04-01T12:26:44.187Z,15.20
2019-04-01T12:29:14.438Z,15.30
2019-04-01T12:31:42.833Z,15.20
2019-04-01T12:34:11.270Z,15.20
2019-04-01T12:36:39.669Z,15.20
2019-04-01T12:39:08.657Z,15.20
2019-04-01T12:41:37.086Z,15.20
2019-04-01T12:44:05.773Z,15.10
2019-04-01T12:46:34.366Z,15.10
2019-04-01T12:49:02.849Z,15.30
2019-04-01T12:51:31.319Z,15.00
2019-04-01T12:53:59.949Z,15.20
2019-04-01T12:56:28.369Z,15.30
2019-04-01T12:58:56.809Z,15.40
2019-04-01T13:01:25.225Z,15.50
2019-04-01T13:03:54.096Z,15.30
2019-04-01T13:06:22.598Z,15.30
2019-04-01T13:08:51.278Z,15.40
2019-04-01T13:11:20.825Z,15.20
2019-04-01T13:13:49.280Z,15.20
2019-04-01T13:16:17.685Z,15.20
2019-04-01T13:18:47.288Z,15.40
2019-04-01T13:21:16.128Z,15.30
2019-04-01T13:23:44.624Z,15.20
2019-04-01T13:26:13.210Z,15.40
2019-04-01T13:28:42.491Z,15.50
2019-04-01T13:31:11.298Z,15.60
2019-04-01T13:33:39.801Z,15.60
2019-04-01T13:36:08.261Z,15.60
2019-04-01T13:38:36.709Z,15.50
2019-04-01T13:41:05.149Z,15.60
2019-04-01T13:43:33.713Z,15.60
2019-04-01T13:46:02.162Z,15.50
2019-04-01T13:48:30.566Z,15.50
2019-04-01T13:50:59.010Z,15.40
2019-04-01T13:53:28.575Z,15.50
2019-04-01T13:55:57.165Z,15.50
2019-04-01T13:58:25.573Z,15.70
2019-04-01T14:00:53.993Z,15.70
2019-04-01T14:03:22.401Z,15.60
2019-04-01T14:05:50.926Z,15.70
2019-04-01T14:08:19.395Z,15.90
2019-04-01T14:10:48.234Z,15.70
2019-04-01T14:13:16.658Z,15.60
2019-04-01T14:15:45.083Z,15.50
2019-04-01T14:18:13.486Z,15.50
2019-04-01T14:20:42.801Z,15.50
2019-04-01T14:23:11.263Z,15.40
2019-04-01T14:25:39.687Z,15.50
2019-04-01T14:28:09.292Z,15.60
2019-04-01T14:30:37.940Z,15.60
2019-04-01T14:33:06.344Z,15.50
2019-04-01T14:35:35.530Z,15.50
2019-04-01T14:38:04.541Z,15.40
2019-04-01T14:40:32.969Z,15.50
2019-04-01T14:43:01.377Z,15.50
2019-04-01T14:45:30.207Z,15.60
2019-04-01T14:47:58.637Z,15.70
2019-04-01T14:50:27.064Z,15.70
2019-04-01T14:52:55.515Z,15.60
2019-04-01T14:55:24.013Z,15.60
2019-04-01T14:57:52.767Z,15.60
2019-04-01T15:00:21.257Z,15.70
2019-04-01T15:02:49.771Z,15.70
2019-04-01T15:05:18.189Z,15.70
2019-04-01T15:07:47.132Z,15.70
2019-04-01T15:10:16.185Z,15.80
2019-04-01T15:12:44.699Z,15.90
2019-04-01T15:15:13.955Z,15.90
2019-04-01T15:17:42.377Z,15.80
2019-04-01T15:20:11.247Z,15.70
2019-04-01T15:22:39.694Z,15.70
2019-04-01T15:25:08.647Z,15.70
2019-04-01T15:27:37.077Z,15.80
2019-04-01T15:30:08.226Z,15.70
2019-04-01T15:32:36.681Z,15.60
2019-04-01T15:35:07.240Z,15.50
2019-04-01T15:37:35.715Z,15.40
2019-04-01T15:40:06.844Z,15.40
2019-04-01T15:42:35.257Z,15.40
2019-04-01T15:45:04.170Z,15.30
2019-04-01T15:47:32.657Z,15.50
2019-04-01T15:50:01.091Z,15.40
2019-04-01T15:52:29.560Z,15.40
2019-04-01T15:54:58.118Z,15.50
2019-04-01T15:57:27.172Z,15.50
2019-04-01T15:59:55.962Z,15.50
2019-04-01T16:02:24.424Z,15.50
2019-04-01T16:04:53.022Z,15.50
2019-04-01T16:07:22.588Z,15.50
2019-04-01T16:09:51.147Z,15.40
2019-04-01T16:12:20.441Z,15.40
2019-04-01T16:14:48.869Z,15.50
2019-04-01T16:17:17.317Z,15.50
2019-04-01T16:19:45.756Z,15.40
2019-04-01T16:22:14.177Z,15.40
2019-04-01T16:24:42.593Z,15.40
2019-04-01T16:27:11.036Z,15.40
2019-04-01T16:29:39.517Z,15.40
2019-04-01T16:32:08.323Z,15.30
2019-04-01T16:34:36.731Z,15.30
2019-04-01T16:37:05.140Z,15.20
2019-04-01T16:39:33.846Z,15.20
2019-04-01T16:42:02.299Z,15.20
2019-04-01T16:44:30.886Z,15.20
2019-04-01T16:46:59.303Z,15.20
2019-04-01T16:49:27.729Z,15.20
2019-04-01T16:51:56.178Z,15.20
2019-04-01T16:54:24.676Z,15.30
2019-04-01T16:56:53.520Z,15.30
2019-04-01T16:59:21.947Z,15.30
2019-04-01T17:01:51.368Z,15.20
2019-04-01T17:04:21.616Z,15.10
2019-04-01T17:06:50.317Z,15.10
2019-04-01T17:09:19.138Z,15.10
2019-04-01T17:11:47.647Z,15.10
2019-04-01T17:14:16.507Z,15.10
2019-04-01T17:16:44.933Z,15.00
2019-04-01T17:19:13.422Z,15.10
2019-04-01T17:21:41.889Z,15.00
2019-04-01T17:24:10.359Z,14.90
2019-04-01T17:26:56.905Z,14.90
2019-04-01T17:29:25.980Z,14.90
2019-04-01T17:31:54.749Z,14.80
2019-04-01T17:34:23.223Z,14.70
2019-04-01T17:36:51.722Z,14.60
2019-04-01T17:39:20.136Z,14.60
2019-04-01T17:41:48.801Z,14.50
2019-04-01T17:44:17.495Z,14.50
2019-04-01T17:46:46.414Z,14.40
2019-04-01T17:49:14.842Z,14.30
2019-04-01T17:51:43.267Z,14.30
2019-04-01T17:54:11.689Z,14.30
2019-04-01T17:56:40.101Z,14.20
2019-04-01T17:59:08.567Z,14.20
2019-04-01T18:01:37.012Z,14.20
2019-04-01T18:04:05.547Z,14.20
2019-04-01T18:06:34.038Z,14.10
2019-04-01T18:09:02.995Z,14.20
2019-04-01T18:11:31.754Z,14.10
2019-04-01T18:14:02.716Z,14.10
2019-04-01T18:16:31.440Z,14.10
2019-04-01T18:19:00.047Z,14.10
2019-04-01T18:21:28.766Z,14.10
2019-04-01T18:23:57.196Z,14.00
2019-04-01T18:26:25.646Z,14.00
2019-04-01T18:28:54.129Z,14.00
2019-04-01T18:31:22.574Z,13.90
2019-04-01T18:33:56.478Z,13.90
2019-04-01T18:36:22.219Z,13.80
2019-04-01T18:38:51.555Z,13.80
2019-04-01T18:41:20.039Z,13.80
2019-04-01T18:43:48.489Z,13.80
2019-04-01T18:46:20.789Z,13.70
2019-04-01T18:48:48.240Z,13.70
2019-04-01T18:51:20.208Z,13.60
2019-04-01T18:53:47.262Z,13.50
2019-04-01T18:56:15.703Z,13.40
2019-04-01T18:58:44.436Z,13.30
2019-04-01T19:01:12.895Z,13.10
2019-04-01T19:03:42.997Z,13.10
2019-04-01T19:06:11.690Z,13.00
2019-04-01T19:08:40.114Z,13.10
2019-04-01T19:11:10.123Z,13.10
2019-04-01T19:13:38.722Z,13.00
2019-04-01T19:16:08.202Z,13.10
2019-04-01T19:18:39.558Z,13.00
2019-04-01T19:21:08.340Z,13.10
2019-04-01T19:23:37.065Z,13.10
2019-04-01T19:26:06.016Z,13.10
2019-04-01T19:28:34.450Z,13.00
2019-04-01T19:31:02.888Z,13.00
2019-04-01T19:33:31.576Z,12.90
2019-04-01T19:36:01.245Z,12.80
2019-04-01T19:38:30.136Z,12.60
2019-04-01T19:40:59.928Z,12.50
2019-04-01T19:43:28.677Z,12.40
2019-04-01T19:45:57.120Z,12.40
2019-04-01T19:48:25.604Z,12.30
2019-04-01T19:50:54.156Z,12.20
2019-04-01T19:53:24.190Z,12.20
2019-04-01T19:55:52.784Z,12.10
2019-04-01T19:58:21.630Z,12.10
2019-04-01T20:00:50.094Z,12.00
2019-04-01T20:03:18.501Z,11.90
2019-04-01T20:05:46.931Z,11.90
2019-04-01T20:08:16.311Z,11.80
2019-04-01T20:10:46.196Z,11.70
2019-04-01T20:13:15.217Z,11.60
2019-04-01T20:15:43.674Z,11.70
2019-04-01T20:18:12.149Z,11.60
2019-04-01T20:20:41.583Z,11.50
2019-04-01T20:23:10.315Z,11.60
2019-04-01T20:25:38.734Z,11.50
2019-04-01T20:28:07.168Z,11.50
2019-04-01T20:30:35.623Z,11.30
2019-04-01T20:33:16.498Z,11.30
2019-04-01T20:35:34.582Z,11.40
2019-04-01T20:38:03.173Z,11.40
2019-04-01T20:40:31.629Z,11.30
2019-04-01T20:43:00.058Z,11.20
2019-04-01T20:45:28.497Z,11.20
2019-04-01T20:47:57.016Z,11.10
2019-04-01T20:50:25.634Z,11.10
2019-04-01T20:52:54.155Z,11.10
2019-04-01T20:55:22.565Z,11.10
2019-04-01T20:57:51.008Z,11.10
2019-04-01T21:00:19.945Z,11.10
2019-04-01T21:02:48.693Z,10.90
2019-04-01T21:05:17.173Z,10.90
2019-04-01T21:07:47.086Z,10.90
2019-04-01T21:10:15.884Z,10.90
2019-04-01T21:12:44.338Z,10.90
2019-04-01T21:15:13.181Z,11.00
2019-04-01T21:17:41.660Z,11.00
2019-04-01T21:20:12.219Z,10.90
2019-04-01T21:22:41.565Z,10.80
2019-04-01T21:25:10.071Z,10.70
2019-04-01T21:27:38.634Z,10.70
2019-04-01T21:30:10.820Z,10.60
2019-04-01T21:32:39.271Z,10.60
2019-04-01T21:35:09.459Z,10.60
2019-04-01T21:37:38.188Z,10.60
2019-04-01T21:40:07.733Z,10.70
2019-04-01T21:42:36.522Z,10.80
2019-04-01T21:45:08.547Z,10.70
2019-04-01T21:47:36.968Z,10.70
2019-04-01T21:50:07.266Z,10.60
2019-04-01T21:52:35.693Z,10.50
2019-04-01T21:55:07.872Z,10.30
2019-04-01T21:57:35.305Z,10.30
2019-04-01T22:00:06.006Z,10.20
2019-04-01T22:02:36.178Z,10.20
2019-04-01T22:05:07.297Z,10.10
2019-04-01T22:07:35.803Z,10.10
2019-04-01T22:10:05.385Z,10.00
2019-04-01T22:12:33.805Z,10.00
2019-04-01T22:15:02.218Z,10.00
2019-04-01T22:17:30.652Z,10.00
2019-04-01T22:19:59.097Z,10.00
2019-04-01T22:22:27.866Z,10.00
2019-04-01T22:24:56.395Z,9.90
2019-04-01T22:27:24.917Z,9.80
2019-04-01T22:29:53.728Z,9.80
2019-04-01T22:32:22.144Z,9.70
2019-04-01T22:34:50.577Z,9.60
2019-04-01T22:37:27.183Z,9.60
2019-04-01T22:39:49.161Z,9.60
2019-04-01T22:42:17.618Z,9.60
2019-04-01T22:44:46.021Z,9.60
2019-04-01T22:47:16.347Z,9.70
2019-04-01T22:49:44.603Z,9.60
2019-04-01T22:52:13.029Z,9.50
2019-04-01T22:54:41.494Z,9.60
2019-04-01T22:57:09.933Z,9.60
2019-04-01T22:59:38.359Z,9.50
2019-04-01T23:02:06.883Z,9.50
2019-04-01T23:04:36.933Z,9.50
2019-04-01T23:07:05.614Z,9.60
2019-04-01T23:09:34.088Z,9.50
2019-04-01T23:12:02.509Z,9.50
2019-04-01T23:14:30.981Z,9.40
2019-04-01T23:16:59.480Z,9.20
2019-04-01T23:19:27.924Z,9.20
2019-04-01T23:21:56.329Z,9.10
2019-04-01T23:24:25.090Z,9.00
2019-04-01T23:26:55.130Z,9.00
2019-04-01T23:29:23.817Z,9.00
2019-04-01T23:31:52.240Z,9.00
2019-04-01T23:34:20.648Z,9.00
2019-04-01T23:36:49.060Z,9.10
2019-04-01T23:39:17.524Z,9.10
2019-04-01T23:41:46.021Z,9.10
2019-04-01T23:44:14.505Z,9.10
2019-04-01T23:46:43.055Z,9.20
2019-04-01T23:49:11.580Z,9.30
2019-04-01T23:51:40.522Z,9.30
2019-04-01T23:54:08.937Z,9.20
2019-04-01T23:56:37.363Z,9.20
2019-04-01T23:59:06.053Z,9.20
